sensor_id;sensor_type;location;lat;lon;timestamp;P1;durP1;ratioP1;P2;durP2;ratioP2
8050;SDS011;4068;42.158;24.732;2023-03-13T00:02:07;12.77;;;5.83;;
8050;SDS011;4068;42.158;24.732;2023-03-13T00:04:32;19.27;;;6.57;;
8050;SDS011;4068;42.158;24.732;2023-03-13T00:06:57;23.53;;;6.67;;
8050;SDS011;4068;42.158;24.732;2023-03-13T00:09:23;13.73;;;6.17;;
8050;SDS011;4068;42.158;24.732;2023-03-13T00:11:48;15.17;;;7.30;;
8050;SDS011;4068;42.158;24.732;2023-03-13T00:14:14;13.67;;;6.83;;
8050;SDS011;4068;42.158;24.732;2023-03-13T00:16:39;29.67;;;6.97;;
8050;SDS011;4068;42.158;24.732;2023-03-13T00:19:05;10.47;;;6.17;;
8050;SDS011;4068;42.158;24.732;2023-03-13T00:21:31;12.17;;;5.67;;
8050;SDS011;4068;42.158;24.732;2023-03-13T00:23:57;9.23;;;5.90;;
8050;SDS011;4068;42.158;24.732;2023-03-13T00:26:24;8.70;;;6.20;;
8050;SDS011;4068;42.158;24.732;2023-03-13T00:28:51;8.13;;;6.00;;
8050;SDS011;4068;42.158;24.732;2023-03-13T00:31:20;9.80;;;6.53;;
8050;SDS011;4068;42.158;24.732;2023-03-13T00:33:48;8.00;;;6.33;;
8050;SDS011;4068;42.158;24.732;2023-03-13T00:36:17;11.00;;;6.20;;
8050;SDS011;4068;42.158;24.732;2023-03-13T00:38:44;10.07;;;6.63;;
8050;SDS011;4068;42.158;24.732;2023-03-13T00:41:17;9.27;;;6.27;;
8050;SDS011;4068;42.158;24.732;2023-03-13T00:43:47;14.57;;;6.83;;
8050;SDS011;4068;42.158;24.732;2023-03-13T00:46:14;17.67;;;6.80;;
8050;SDS011;4068;42.158;24.732;2023-03-13T00:48:42;10.47;;;6.80;;
8050;SDS011;4068;42.158;24.732;2023-03-13T00:51:08;25.43;;;6.70;;
8050;SDS011;4068;42.158;24.732;2023-03-13T00:53:34;19.33;;;7.70;;
8050;SDS011;4068;42.158;24.732;2023-03-13T00:58:28;9.63;;;6.60;;
8050;SDS011;4068;42.158;24.732;2023-03-13T01:00:55;11.10;;;6.67;;
8050;SDS011;4068;42.158;24.732;2023-03-13T01:03:21;8.50;;;5.93;;
8050;SDS011;4068;42.158;24.732;2023-03-13T01:05:55;12.70;;;6.33;;
8050;SDS011;4068;42.158;24.732;2023-03-13T01:08:24;8.97;;;6.37;;
8050;SDS011;4068;42.158;24.732;2023-03-13T01:10:56;57.13;;;8.87;;
8050;SDS011;4068;42.158;24.732;2023-03-13T01:13:22;23.47;;;7.17;;
8050;SDS011;4068;42.158;24.732;2023-03-13T01:15:48;17.53;;;6.17;;
8050;SDS011;4068;42.158;24.732;2023-03-13T01:18:13;18.67;;;7.13;;
8050;SDS011;4068;42.158;24.732;2023-03-13T01:20:39;39.23;;;8.10;;
8050;SDS011;4068;42.158;24.732;2023-03-13T01:23:05;14.50;;;6.80;;
8050;SDS011;4068;42.158;24.732;2023-03-13T01:25:30;15.60;;;6.83;;
8050;SDS011;4068;42.158;24.732;2023-03-13T01:27:56;12.13;;;6.70;;
8050;SDS011;4068;42.158;24.732;2023-03-13T01:30:21;10.57;;;7.30;;
8050;SDS011;4068;42.158;24.732;2023-03-13T01:32:46;10.47;;;7.27;;
8050;SDS011;4068;42.158;24.732;2023-03-13T01:35:12;9.93;;;6.53;;
8050;SDS011;4068;42.158;24.732;2023-03-13T01:37:38;10.43;;;6.73;;
8050;SDS011;4068;42.158;24.732;2023-03-13T01:40:03;8.87;;;6.30;;
8050;SDS011;4068;42.158;24.732;2023-03-13T01:42:29;9.57;;;6.20;;
8050;SDS011;4068;42.158;24.732;2023-03-13T01:44:55;11.83;;;6.20;;
8050;SDS011;4068;42.158;24.732;2023-03-13T01:47:21;10.80;;;6.33;;
8050;SDS011;4068;42.158;24.732;2023-03-13T01:49:47;12.67;;;6.87;;
8050;SDS011;4068;42.158;24.732;2023-03-13T01:52:21;12.03;;;7.40;;
8050;SDS011;4068;42.158;24.732;2023-03-13T01:57:30;10.00;;;6.67;;
8050;SDS011;4068;42.158;24.732;2023-03-13T02:00:00;10.63;;;6.67;;
8050;SDS011;4068;42.158;24.732;2023-03-13T02:02:32;8.90;;;6.57;;
8050;SDS011;4068;42.158;24.732;2023-03-13T02:04:59;9.27;;;6.17;;
8050;SDS011;4068;42.158;24.732;2023-03-13T02:07:31;10.70;;;6.40;;
8050;SDS011;4068;42.158;24.732;2023-03-13T02:10:04;11.30;;;6.83;;
8050;SDS011;4068;42.158;24.732;2023-03-13T02:12:32;11.23;;;7.00;;
8050;SDS011;4068;42.158;24.732;2023-03-13T02:15:01;8.27;;;6.57;;
8050;SDS011;4068;42.158;24.732;2023-03-13T02:17:29;12.50;;;6.40;;
8050;SDS011;4068;42.158;24.732;2023-03-13T02:19:56;10.30;;;6.83;;
8050;SDS011;4068;42.158;24.732;2023-03-13T02:28:00;15.40;;;6.70;;
8050;SDS011;4068;42.158;24.732;2023-03-13T02:30:29;9.77;;;6.50;;
8050;SDS011;4068;42.158;24.732;2023-03-13T02:32:55;10.07;;;6.57;;
8050;SDS011;4068;42.158;24.732;2023-03-13T02:35:21;9.13;;;6.30;;
8050;SDS011;4068;42.158;24.732;2023-03-13T02:37:55;9.07;;;6.50;;
8050;SDS011;4068;42.158;24.732;2023-03-13T02:40:25;9.10;;;6.13;;
8050;SDS011;4068;42.158;24.732;2023-03-13T02:42:54;7.70;;;5.97;;
8050;SDS011;4068;42.158;24.732;2023-03-13T02:45:20;9.53;;;6.37;;
8050;SDS011;4068;42.158;24.732;2023-03-13T02:47:46;10.83;;;6.73;;
8050;SDS011;4068;42.158;24.732;2023-03-13T02:50:12;17.40;;;8.83;;
8050;SDS011;4068;42.158;24.732;2023-03-13T02:52:48;14.20;;;8.40;;
8050;SDS011;4068;42.158;24.732;2023-03-13T02:55:19;15.03;;;8.80;;
8050;SDS011;4068;42.158;24.732;2023-03-13T02:57:48;15.20;;;8.10;;
8050;SDS011;4068;42.158;24.732;2023-03-13T03:00:32;16.50;;;7.20;;
8050;SDS011;4068;42.158;24.732;2023-03-13T03:02:59;11.93;;;7.17;;
8050;SDS011;4068;42.158;24.732;2023-03-13T03:05:25;12.97;;;7.70;;
8050;SDS011;4068;42.158;24.732;2023-03-13T03:07:50;13.50;;;7.20;;
8050;SDS011;4068;42.158;24.732;2023-03-13T03:10:16;13.30;;;7.67;;
8050;SDS011;4068;42.158;24.732;2023-03-13T03:12:42;15.10;;;8.60;;
8050;SDS011;4068;42.158;24.732;2023-03-13T03:15:08;17.87;;;9.40;;
8050;SDS011;4068;42.158;24.732;2023-03-13T03:17:34;18.33;;;9.10;;
8050;SDS011;4068;42.158;24.732;2023-03-13T03:19:59;17.53;;;9.93;;
8050;SDS011;4068;42.158;24.732;2023-03-13T03:22:25;28.93;;;12.17;;
8050;SDS011;4068;42.158;24.732;2023-03-13T03:24:50;14.60;;;8.37;;
8050;SDS011;4068;42.158;24.732;2023-03-13T03:27:16;17.40;;;8.63;;
8050;SDS011;4068;42.158;24.732;2023-03-13T03:29:41;12.27;;;7.40;;
8050;SDS011;4068;42.158;24.732;2023-03-13T03:32:06;10.90;;;7.17;;
8050;SDS011;4068;42.158;24.732;2023-03-13T03:34:32;15.67;;;8.33;;
8050;SDS011;4068;42.158;24.732;2023-03-13T03:36:57;14.27;;;8.63;;
8050;SDS011;4068;42.158;24.732;2023-03-13T03:39:23;15.60;;;8.17;;
8050;SDS011;4068;42.158;24.732;2023-03-13T03:41:49;15.73;;;8.83;;
8050;SDS011;4068;42.158;24.732;2023-03-13T03:44:14;16.63;;;8.23;;
8050;SDS011;4068;42.158;24.732;2023-03-13T03:46:39;15.03;;;8.57;;
8050;SDS011;4068;42.158;24.732;2023-03-13T03:49:05;13.97;;;8.07;;
8050;SDS011;4068;42.158;24.732;2023-03-13T03:51:30;11.23;;;6.67;;
8050;SDS011;4068;42.158;24.732;2023-03-13T03:53:56;11.87;;;7.00;;
8050;SDS011;4068;42.158;24.732;2023-03-13T03:56:21;11.70;;;7.73;;
8050;SDS011;4068;42.158;24.732;2023-03-13T03:58:47;11.67;;;6.80;;
8050;SDS011;4068;42.158;24.732;2023-03-13T04:01:12;11.60;;;6.77;;
8050;SDS011;4068;42.158;24.732;2023-03-13T04:03:38;9.70;;;6.93;;
8050;SDS011;4068;42.158;24.732;2023-03-13T04:06:03;10.33;;;6.57;;
8050;SDS011;4068;42.158;24.732;2023-03-13T04:08:31;14.00;;;7.13;;
8050;SDS011;4068;42.158;24.732;2023-03-13T04:10:56;12.73;;;8.37;;
8050;SDS011;4068;42.158;24.732;2023-03-13T04:13:23;15.53;;;7.60;;
8050;SDS011;4068;42.158;24.732;2023-03-13T04:15:49;16.43;;;7.97;;
8050;SDS011;4068;42.158;24.732;2023-03-13T04:18:14;12.07;;;7.37;;
8050;SDS011;4068;42.158;24.732;2023-03-13T04:20:40;22.27;;;8.83;;
8050;SDS011;4068;42.158;24.732;2023-03-13T04:23:06;13.03;;;6.83;;
8050;SDS011;4068;42.158;24.732;2023-03-13T04:25:31;12.23;;;7.40;;
8050;SDS011;4068;42.158;24.732;2023-03-13T04:27:56;13.27;;;7.37;;
8050;SDS011;4068;42.158;24.732;2023-03-13T04:30:22;9.57;;;6.80;;
8050;SDS011;4068;42.158;24.732;2023-03-13T04:32:47;13.23;;;7.47;;
8050;SDS011;4068;42.158;24.732;2023-03-13T04:35:15;11.90;;;6.83;;
8050;SDS011;4068;42.158;24.732;2023-03-13T04:37:40;19.30;;;7.90;;
8050;SDS011;4068;42.158;24.732;2023-03-13T04:40:06;13.33;;;8.07;;
8050;SDS011;4068;42.158;24.732;2023-03-13T04:42:32;13.17;;;7.93;;
8050;SDS011;4068;42.158;24.732;2023-03-13T04:44:57;10.07;;;7.10;;
8050;SDS011;4068;42.158;24.732;2023-03-13T04:47:22;13.23;;;7.30;;
8050;SDS011;4068;42.158;24.732;2023-03-13T04:49:48;15.47;;;7.10;;
8050;SDS011;4068;42.158;24.732;2023-03-13T04:52:13;11.17;;;7.10;;
8050;SDS011;4068;42.158;24.732;2023-03-13T04:54:39;10.83;;;7.50;;
8050;SDS011;4068;42.158;24.732;2023-03-13T04:57:04;12.97;;;7.67;;
8050;SDS011;4068;42.158;24.732;2023-03-13T04:59:30;16.90;;;8.80;;
8050;SDS011;4068;42.158;24.732;2023-03-13T05:01:55;17.13;;;8.20;;
8050;SDS011;4068;42.158;24.732;2023-03-13T05:04:21;16.77;;;7.80;;
8050;SDS011;4068;42.158;24.732;2023-03-13T05:06:46;13.30;;;7.40;;
8050;SDS011;4068;42.158;24.732;2023-03-13T05:09:12;11.30;;;7.27;;
8050;SDS011;4068;42.158;24.732;2023-03-13T05:11:37;11.37;;;7.10;;
8050;SDS011;4068;42.158;24.732;2023-03-13T05:14:04;11.87;;;7.70;;
8050;SDS011;4068;42.158;24.732;2023-03-13T05:16:29;14.47;;;8.13;;
8050;SDS011;4068;42.158;24.732;2023-03-13T05:18:55;15.80;;;8.47;;
8050;SDS011;4068;42.158;24.732;2023-03-13T05:21:20;12.23;;;7.60;;
8050;SDS011;4068;42.158;24.732;2023-03-13T05:23:46;15.23;;;7.93;;
8050;SDS011;4068;42.158;24.732;2023-03-13T05:26:11;17.03;;;7.93;;
8050;SDS011;4068;42.158;24.732;2023-03-13T05:28:36;11.93;;;7.87;;
8050;SDS011;4068;42.158;24.732;2023-03-13T05:31:02;11.17;;;7.30;;
8050;SDS011;4068;42.158;24.732;2023-03-13T05:33:27;12.87;;;7.17;;
8050;SDS011;4068;42.158;24.732;2023-03-13T05:35:53;16.40;;;7.50;;
8050;SDS011;4068;42.158;24.732;2023-03-13T05:38:18;14.07;;;7.73;;
8050;SDS011;4068;42.158;24.732;2023-03-13T05:40:44;16.77;;;7.60;;
8050;SDS011;4068;42.158;24.732;2023-03-13T05:43:09;13.93;;;7.97;;
8050;SDS011;4068;42.158;24.732;2023-03-13T05:45:34;11.33;;;7.00;;
8050;SDS011;4068;42.158;24.732;2023-03-13T05:48:00;9.87;;;7.07;;
8050;SDS011;4068;42.158;24.732;2023-03-13T05:50:26;14.80;;;8.00;;
8050;SDS011;4068;42.158;24.732;2023-03-13T05:52:51;12.63;;;7.93;;
8050;SDS011;4068;42.158;24.732;2023-03-13T05:55:17;13.50;;;8.23;;
8050;SDS011;4068;42.158;24.732;2023-03-13T05:57:44;11.67;;;7.63;;
8050;SDS011;4068;42.158;24.732;2023-03-13T06:00:10;13.30;;;7.80;;
8050;SDS011;4068;42.158;24.732;2023-03-13T06:02:37;13.23;;;7.93;;
8050;SDS011;4068;42.158;24.732;2023-03-13T06:05:02;22.13;;;9.10;;
8050;SDS011;4068;42.158;24.732;2023-03-13T06:07:28;14.20;;;8.63;;
8050;SDS011;4068;42.158;24.732;2023-03-13T06:09:53;11.83;;;7.70;;
8050;SDS011;4068;42.158;24.732;2023-03-13T06:12:19;19.93;;;8.43;;
8050;SDS011;4068;42.158;24.732;2023-03-13T06:14:44;13.77;;;8.57;;
8050;SDS011;4068;42.158;24.732;2023-03-13T06:17:10;15.53;;;9.27;;
8050;SDS011;4068;42.158;24.732;2023-03-13T06:19:35;16.10;;;8.63;;
8050;SDS011;4068;42.158;24.732;2023-03-13T06:22:00;16.57;;;9.23;;
8050;SDS011;4068;42.158;24.732;2023-03-13T06:24:26;12.17;;;7.90;;
8050;SDS011;4068;42.158;24.732;2023-03-13T06:26:51;17.93;;;7.70;;
8050;SDS011;4068;42.158;24.732;2023-03-13T06:29:17;12.57;;;7.43;;
8050;SDS011;4068;42.158;24.732;2023-03-13T06:31:42;11.60;;;7.83;;
8050;SDS011;4068;42.158;24.732;2023-03-13T06:34:11;12.40;;;7.57;;
8050;SDS011;4068;42.158;24.732;2023-03-13T06:36:37;11.97;;;8.60;;
8050;SDS011;4068;42.158;24.732;2023-03-13T06:39:03;14.33;;;8.33;;
8050;SDS011;4068;42.158;24.732;2023-03-13T06:41:28;14.17;;;8.07;;
8050;SDS011;4068;42.158;24.732;2023-03-13T06:43:54;11.00;;;7.60;;
8050;SDS011;4068;42.158;24.732;2023-03-13T06:46:20;12.17;;;8.10;;
8050;SDS011;4068;42.158;24.732;2023-03-13T06:48:48;21.13;;;7.80;;
8050;SDS011;4068;42.158;24.732;2023-03-13T06:51:14;10.50;;;7.33;;
8050;SDS011;4068;42.158;24.732;2023-03-13T06:53:41;12.27;;;6.90;;
8050;SDS011;4068;42.158;24.732;2023-03-13T06:56:07;10.67;;;7.47;;
8050;SDS011;4068;42.158;24.732;2023-03-13T06:58:34;10.97;;;7.23;;
8050;SDS011;4068;42.158;24.732;2023-03-13T07:01:04;10.70;;;7.77;;
8050;SDS011;4068;42.158;24.732;2023-03-13T07:03:37;10.80;;;7.50;;
8050;SDS011;4068;42.158;24.732;2023-03-13T07:06:03;11.07;;;7.63;;
8050;SDS011;4068;42.158;24.732;2023-03-13T07:08:29;13.47;;;7.87;;
8050;SDS011;4068;42.158;24.732;2023-03-13T07:11:00;10.73;;;7.63;;
8050;SDS011;4068;42.158;24.732;2023-03-13T07:13:27;11.90;;;8.17;;
8050;SDS011;4068;42.158;24.732;2023-03-13T07:15:53;11.53;;;7.87;;
8050;SDS011;4068;42.158;24.732;2023-03-13T07:18:20;11.13;;;7.37;;
8050;SDS011;4068;42.158;24.732;2023-03-13T07:20:52;12.07;;;8.03;;
8050;SDS011;4068;42.158;24.732;2023-03-13T07:23:22;12.90;;;8.87;;
8050;SDS011;4068;42.158;24.732;2023-03-13T07:25:53;17.07;;;8.57;;
8050;SDS011;4068;42.158;24.732;2023-03-13T07:28:26;14.60;;;8.87;;
8050;SDS011;4068;42.158;24.732;2023-03-13T07:30:53;16.37;;;10.40;;
8050;SDS011;4068;42.158;24.732;2023-03-13T07:33:18;11.10;;;8.37;;
8050;SDS011;4068;42.158;24.732;2023-03-13T07:35:47;14.13;;;8.73;;
8050;SDS011;4068;42.158;24.732;2023-03-13T07:38:14;13.40;;;9.03;;
8050;SDS011;4068;42.158;24.732;2023-03-13T07:40:39;15.33;;;8.57;;
8050;SDS011;4068;42.158;24.732;2023-03-13T07:43:14;13.50;;;9.20;;
8050;SDS011;4068;42.158;24.732;2023-03-13T07:45:48;14.33;;;9.60;;
8050;SDS011;4068;42.158;24.732;2023-03-13T07:48:38;15.37;;;8.90;;
8050;SDS011;4068;42.158;24.732;2023-03-13T07:51:05;16.10;;;8.73;;
8050;SDS011;4068;42.158;24.732;2023-03-13T07:53:34;17.07;;;8.70;;
8050;SDS011;4068;42.158;24.732;2023-03-13T07:56:01;8.82;;;6.93;;
8050;SDS011;4068;42.158;24.732;2023-03-13T07:58:36;9.88;;;5.78;;
8050;SDS011;4068;42.158;24.732;2023-03-13T08:01:14;8.40;;;6.33;;
8050;SDS011;4068;42.158;24.732;2023-03-13T08:03:39;8.73;;;6.85;;
8050;SDS011;4068;42.158;24.732;2023-03-13T08:06:06;8.10;;;6.37;;
8050;SDS011;4068;42.158;24.732;2023-03-13T08:08:34;10.00;;;6.55;;
8050;SDS011;4068;42.158;24.732;2023-03-13T08:11:07;12.75;;;6.60;;
8050;SDS011;4068;42.158;24.732;2023-03-13T08:13:34;9.33;;;6.90;;
8050;SDS011;4068;42.158;24.732;2023-03-13T08:16:05;9.63;;;6.90;;
8050;SDS011;4068;42.158;24.732;2023-03-13T08:18:32;7.95;;;6.30;;
8050;SDS011;4068;42.158;24.732;2023-03-13T08:21:09;9.18;;;6.50;;
8050;SDS011;4068;42.158;24.732;2023-03-13T08:23:36;10.50;;;6.78;;
8050;SDS011;4068;42.158;24.732;2023-03-13T08:26:03;12.55;;;6.75;;
8050;SDS011;4068;42.158;24.732;2023-03-13T08:28:40;12.40;;;6.82;;
8050;SDS011;4068;42.158;24.732;2023-03-13T08:31:07;10.60;;;6.72;;
8050;SDS011;4068;42.158;24.732;2023-03-13T08:33:33;11.15;;;7.88;;
8050;SDS011;4068;42.158;24.732;2023-03-13T08:36:05;8.30;;;5.82;;
8050;SDS011;4068;42.158;24.732;2023-03-13T08:38:33;8.02;;;5.25;;
8050;SDS011;4068;42.158;24.732;2023-03-13T08:40:58;9.15;;;6.18;;
8050;SDS011;4068;42.158;24.732;2023-03-13T08:43:24;8.63;;;6.22;;
8050;SDS011;4068;42.158;24.732;2023-03-13T08:45:58;9.65;;;6.45;;
8050;SDS011;4068;42.158;24.732;2023-03-13T08:48:24;8.50;;;5.70;;
8050;SDS011;4068;42.158;24.732;2023-03-13T08:53:46;7.65;;;5.88;;
8050;SDS011;4068;42.158;24.732;2023-03-13T08:56:13;8.88;;;6.40;;
8050;SDS011;4068;42.158;24.732;2023-03-13T08:58:40;9.77;;;5.55;;
8050;SDS011;4068;42.158;24.732;2023-03-13T09:01:12;7.40;;;5.32;;
8050;SDS011;4068;42.158;24.732;2023-03-13T09:03:39;6.18;;;4.57;;
8050;SDS011;4068;42.158;24.732;2023-03-13T09:06:05;6.57;;;5.40;;
8050;SDS011;4068;42.158;24.732;2023-03-13T09:08:32;6.60;;;5.45;;
8050;SDS011;4068;42.158;24.732;2023-03-13T09:10:59;8.70;;;5.13;;
8050;SDS011;4068;42.158;24.732;2023-03-13T09:13:26;10.52;;;5.38;;
8050;SDS011;4068;42.158;24.732;2023-03-13T09:15:53;6.28;;;4.60;;
8050;SDS011;4068;42.158;24.732;2023-03-13T09:18:23;6.43;;;4.10;;
8050;SDS011;4068;42.158;24.732;2023-03-13T09:20:49;5.30;;;4.45;;
8050;SDS011;4068;42.158;24.732;2023-03-13T09:23:15;5.90;;;4.70;;
8050;SDS011;4068;42.158;24.732;2023-03-13T09:25:41;5.70;;;5.07;;
8050;SDS011;4068;42.158;24.732;2023-03-13T09:28:07;7.80;;;4.57;;
8050;SDS011;4068;42.158;24.732;2023-03-13T09:30:32;4.88;;;4.45;;
8050;SDS011;4068;42.158;24.732;2023-03-13T09:32:57;6.72;;;4.95;;
8050;SDS011;4068;42.158;24.732;2023-03-13T09:35:23;7.47;;;5.40;;
8050;SDS011;4068;42.158;24.732;2023-03-13T09:37:48;5.97;;;4.70;;
8050;SDS011;4068;42.158;24.732;2023-03-13T09:40:18;6.85;;;4.55;;
8050;SDS011;4068;42.158;24.732;2023-03-13T09:42:54;7.20;;;5.13;;
8050;SDS011;4068;42.158;24.732;2023-03-13T09:45:29;8.38;;;5.03;;
8050;SDS011;4068;42.158;24.732;2023-03-13T09:48:02;7.03;;;5.53;;
8050;SDS011;4068;42.158;24.732;2023-03-13T09:50:44;9.73;;;5.32;;
8050;SDS011;4068;42.158;24.732;2023-03-13T09:53:19;6.85;;;4.50;;
8050;SDS011;4068;42.158;24.732;2023-03-13T09:55:55;5.75;;;4.80;;
8050;SDS011;4068;42.158;24.732;2023-03-13T09:58:22;5.97;;;4.95;;
8050;SDS011;4068;42.158;24.732;2023-03-13T10:00:53;8.55;;;4.95;;
8050;SDS011;4068;42.158;24.732;2023-03-13T10:06:05;6.38;;;4.70;;
8050;SDS011;4068;42.158;24.732;2023-03-13T10:08:44;6.78;;;5.25;;
8050;SDS011;4068;42.158;24.732;2023-03-13T10:11:22;9.70;;;5.10;;
8050;SDS011;4068;42.158;24.732;2023-03-13T10:16:22;6.45;;;5.18;;
8050;SDS011;4068;42.158;24.732;2023-03-13T10:19:00;10.65;;;5.55;;
8050;SDS011;4068;42.158;24.732;2023-03-13T10:21:36;8.80;;;5.00;;
8050;SDS011;4068;42.158;24.732;2023-03-13T10:26:55;13.27;;;5.03;;
8050;SDS011;4068;42.158;24.732;2023-03-13T10:29:25;11.30;;;5.32;;
8050;SDS011;4068;42.158;24.732;2023-03-13T10:34:17;5.45;;;4.95;;
8050;SDS011;4068;42.158;24.732;2023-03-13T10:36:50;8.50;;;4.53;;
8050;SDS011;4068;42.158;24.732;2023-03-13T10:39:21;4.80;;;4.15;;
8050;SDS011;4068;42.158;24.732;2023-03-13T10:41:49;7.13;;;4.50;;
8050;SDS011;4068;42.158;24.732;2023-03-13T10:44:21;6.57;;;4.38;;
8050;SDS011;4068;42.158;24.732;2023-03-13T10:46:48;7.43;;;4.30;;
8050;SDS011;4068;42.158;24.732;2023-03-13T10:49:16;4.18;;;3.78;;
8050;SDS011;4068;42.158;24.732;2023-03-13T10:51:48;4.32;;;3.92;;
8050;SDS011;4068;42.158;24.732;2023-03-13T10:59:47;5.82;;;4.72;;
8050;SDS011;4068;42.158;24.732;2023-03-13T11:04:47;6.60;;;4.78;;
8050;SDS011;4068;42.158;24.732;2023-03-13T11:07:33;7.03;;;4.15;;
8050;SDS011;4068;42.158;24.732;2023-03-13T11:10:24;8.88;;;4.03;;
8050;SDS011;4068;42.158;24.732;2023-03-13T11:12:51;4.93;;;3.75;;
8050;SDS011;4068;42.158;24.732;2023-03-13T11:15:41;5.63;;;4.25;;
8050;SDS011;4068;42.158;24.732;2023-03-13T11:18:18;5.22;;;4.53;;
8050;SDS011;4068;42.158;24.732;2023-03-13T11:20:50;5.40;;;4.30;;
8050;SDS011;4068;42.158;24.732;2023-03-13T11:26:14;5.32;;;4.18;;
8050;SDS011;4068;42.158;24.732;2023-03-13T11:31:41;9.05;;;4.63;;
8050;SDS011;4068;42.158;24.732;2023-03-13T11:37:18;6.28;;;4.57;;
8050;SDS011;4068;42.158;24.732;2023-03-13T11:39:54;6.60;;;4.97;;
8050;SDS011;4068;42.158;24.732;2023-03-13T12:01:16;4.15;;;3.75;;
8050;SDS011;4068;42.158;24.732;2023-03-13T12:14:17;4.55;;;4.07;;
8050;SDS011;4068;42.158;24.732;2023-03-13T12:16:52;4.35;;;3.83;;
8050;SDS011;4068;42.158;24.732;2023-03-13T12:19:36;5.78;;;4.20;;
8050;SDS011;4068;42.158;24.732;2023-03-13T12:22:14;5.78;;;4.13;;
8050;SDS011;4068;42.158;24.732;2023-03-13T12:24:59;4.72;;;4.22;;
8050;SDS011;4068;42.158;24.732;2023-03-13T12:27:34;8.60;;;3.95;;
8050;SDS011;4068;42.158;24.732;2023-03-13T12:30:18;5.57;;;4.07;;
8050;SDS011;4068;42.158;24.732;2023-03-13T12:35:26;5.60;;;4.13;;
8050;SDS011;4068;42.158;24.732;2023-03-13T12:43:43;4.43;;;4.03;;
8050;SDS011;4068;42.158;24.732;2023-03-13T12:46:19;4.05;;;3.53;;
8050;SDS011;4068;42.158;24.732;2023-03-13T12:51:56;4.05;;;3.53;;
8050;SDS011;4068;42.158;24.732;2023-03-13T12:59:58;3.95;;;3.55;;
8050;SDS011;4068;42.158;24.732;2023-03-13T13:02:29;4.72;;;3.90;;
8050;SDS011;4068;42.158;24.732;2023-03-13T13:04:56;4.78;;;3.47;;
8050;SDS011;4068;42.158;24.732;2023-03-13T13:07:25;5.95;;;3.70;;
8050;SDS011;4068;42.158;24.732;2023-03-13T13:12:33;5.45;;;4.05;;
8050;SDS011;4068;42.158;24.732;2023-03-13T13:15:00;5.68;;;4.07;;
8050;SDS011;4068;42.158;24.732;2023-03-13T13:22:50;6.10;;;3.70;;
8050;SDS011;4068;42.158;24.732;2023-03-13T13:37:50;4.13;;;3.70;;
8050;SDS011;4068;42.158;24.732;2023-03-13T13:43:01;5.13;;;3.92;;
8050;SDS011;4068;42.158;24.732;2023-03-13T13:56:36;3.97;;;3.65;;
8050;SDS011;4068;42.158;24.732;2023-03-13T14:02:31;4.50;;;3.78;;
8050;SDS011;4068;42.158;24.732;2023-03-13T14:07:11;4.80;;;4.05;;
8050;SDS011;4068;42.158;24.732;2023-03-13T14:12:28;5.03;;;4.53;;
8050;SDS011;4068;42.158;24.732;2023-03-13T14:15:06;4.57;;;4.00;;
8050;SDS011;4068;42.158;24.732;2023-03-13T14:17:57;10.07;;;4.40;;
8050;SDS011;4068;42.158;24.732;2023-03-13T14:20:34;4.22;;;3.83;;
8050;SDS011;4068;42.158;24.732;2023-03-13T14:23:10;9.10;;;4.25;;
8050;SDS011;4068;42.158;24.732;2023-03-13T14:25:43;4.72;;;4.22;;
8050;SDS011;4068;42.158;24.732;2023-03-13T14:30:42;5.10;;;4.07;;
8050;SDS011;4068;42.158;24.732;2023-03-13T14:33:08;4.60;;;4.10;;
8050;SDS011;4068;42.158;24.732;2023-03-13T14:35:33;4.18;;;3.78;;
8050;SDS011;4068;42.158;24.732;2023-03-13T14:38:02;5.13;;;4.65;;
8050;SDS011;4068;42.158;24.732;2023-03-13T14:40:28;6.35;;;4.28;;
8050;SDS011;4068;42.158;24.732;2023-03-13T14:42:56;4.22;;;3.83;;
8050;SDS011;4068;42.158;24.732;2023-03-13T14:45:28;4.00;;;3.47;;
8050;SDS011;4068;42.158;24.732;2023-03-13T14:47:59;6.35;;;4.43;;
8050;SDS011;4068;42.158;24.732;2023-03-13T14:50:27;6.07;;;4.03;;
8050;SDS011;4068;42.158;24.732;2023-03-13T14:53:00;4.70;;;3.80;;
8050;SDS011;4068;42.158;24.732;2023-03-13T14:55:33;6.78;;;4.78;;
8050;SDS011;4068;42.158;24.732;2023-03-13T14:58:04;6.97;;;4.80;;
8050;SDS011;4068;42.158;24.732;2023-03-13T15:00:51;5.82;;;4.20;;
8050;SDS011;4068;42.158;24.732;2023-03-13T15:08:31;5.57;;;4.35;;
8050;SDS011;4068;42.158;24.732;2023-03-13T15:10:58;4.78;;;3.92;;
8050;SDS011;4068;42.158;24.732;2023-03-13T15:13:36;7.43;;;5.60;;
8050;SDS011;4068;42.158;24.732;2023-03-13T15:16:04;7.28;;;4.43;;
8050;SDS011;4068;42.158;24.732;2023-03-13T15:18:39;8.25;;;4.18;;
8050;SDS011;4068;42.158;24.732;2023-03-13T15:23:41;11.63;;;5.32;;
8050;SDS011;4068;42.158;24.732;2023-03-13T15:26:12;9.00;;;4.30;;
8050;SDS011;4068;42.158;24.732;2023-03-13T15:28:38;5.15;;;4.45;;
8050;SDS011;4068;42.158;24.732;2023-03-13T15:31:03;5.45;;;3.55;;
8050;SDS011;4068;42.158;24.732;2023-03-13T15:33:29;9.50;;;4.20;;
8050;SDS011;4068;42.158;24.732;2023-03-13T15:35:55;6.53;;;4.47;;
8050;SDS011;4068;42.158;24.732;2023-03-13T15:38:22;7.10;;;4.35;;
8050;SDS011;4068;42.158;24.732;2023-03-13T15:40:51;13.23;;;5.05;;
8050;SDS011;4068;42.158;24.732;2023-03-13T15:43:17;7.22;;;4.50;;
8050;SDS011;4068;42.158;24.732;2023-03-13T15:45:44;4.75;;;3.97;;
8050;SDS011;4068;42.158;24.732;2023-03-13T15:48:15;5.65;;;4.28;;
8050;SDS011;4068;42.158;24.732;2023-03-13T15:50:49;9.35;;;4.60;;
8050;SDS011;4068;42.158;24.732;2023-03-13T15:53:17;8.20;;;4.40;;
8050;SDS011;4068;42.158;24.732;2023-03-13T15:55:48;5.55;;;4.18;;
8050;SDS011;4068;42.158;24.732;2023-03-13T15:58:15;5.13;;;3.83;;
8050;SDS011;4068;42.158;24.732;2023-03-13T16:00:41;8.40;;;4.32;;
8050;SDS011;4068;42.158;24.732;2023-03-13T16:03:18;8.95;;;4.65;;
8050;SDS011;4068;42.158;24.732;2023-03-13T16:05:46;6.20;;;4.35;;
8050;SDS011;4068;42.158;24.732;2023-03-13T16:08:23;7.40;;;4.75;;
8050;SDS011;4068;42.158;24.732;2023-03-13T16:10:50;6.03;;;4.57;;
8050;SDS011;4068;42.158;24.732;2023-03-13T16:13:16;6.78;;;4.90;;
8050;SDS011;4068;42.158;24.732;2023-03-13T16:15:42;6.80;;;4.97;;
8050;SDS011;4068;42.158;24.732;2023-03-13T16:18:26;18.58;;;5.13;;
8050;SDS011;4068;42.158;24.732;2023-03-13T16:20:52;7.13;;;4.53;;
8050;SDS011;4068;42.158;24.732;2023-03-13T16:23:17;9.30;;;5.30;;
8050;SDS011;4068;42.158;24.732;2023-03-13T16:25:43;8.98;;;4.80;;
8050;SDS011;4068;42.158;24.732;2023-03-13T16:28:10;10.20;;;4.43;;
8050;SDS011;4068;42.158;24.732;2023-03-13T16:30:37;11.82;;;4.68;;
8050;SDS011;4068;42.158;24.732;2023-03-13T16:33:05;6.07;;;4.35;;
8050;SDS011;4068;42.158;24.732;2023-03-13T16:35:32;5.43;;;4.28;;
8050;SDS011;4068;42.158;24.732;2023-03-13T16:37:57;10.43;;;4.30;;
8050;SDS011;4068;42.158;24.732;2023-03-13T16:40:24;7.45;;;4.18;;
8050;SDS011;4068;42.158;24.732;2023-03-13T16:42:51;6.68;;;4.40;;
8050;SDS011;4068;42.158;24.732;2023-03-13T16:45:17;11.50;;;4.80;;
8050;SDS011;4068;42.158;24.732;2023-03-13T16:47:43;7.47;;;4.40;;
8050;SDS011;4068;42.158;24.732;2023-03-13T16:53:10;7.82;;;4.70;;
8050;SDS011;4068;42.158;24.732;2023-03-13T16:55:35;6.65;;;5.40;;
8050;SDS011;4068;42.158;24.732;2023-03-13T16:58:01;6.70;;;5.10;;
8050;SDS011;4068;42.158;24.732;2023-03-13T17:00:28;9.45;;;4.97;;
8050;SDS011;4068;42.158;24.732;2023-03-13T17:02:55;5.05;;;4.55;;
8050;SDS011;4068;42.158;24.732;2023-03-13T17:05:22;7.07;;;4.80;;
8050;SDS011;4068;42.158;24.732;2023-03-13T17:07:49;11.48;;;5.90;;
8050;SDS011;4068;42.158;24.732;2023-03-13T17:12:48;8.77;;;6.20;;
8050;SDS011;4068;42.158;24.732;2023-03-13T17:15:14;10.05;;;5.97;;
8050;SDS011;4068;42.158;24.732;2023-03-13T17:17:39;11.27;;;6.45;;
8050;SDS011;4068;42.158;24.732;2023-03-13T17:20:08;12.43;;;6.88;;
8050;SDS011;4068;42.158;24.732;2023-03-13T17:22:37;13.07;;;7.57;;
8050;SDS011;4068;42.158;24.732;2023-03-13T17:25:03;11.27;;;6.50;;
8050;SDS011;4068;42.158;24.732;2023-03-13T17:27:29;17.65;;;6.72;;